createdAt,value
2023-05-11T00:00:22.976Z,10.64
2023-05-11T00:02:49.385Z,10.64
2023-05-11T00:05:15.992Z,10.64
2023-05-11T00:07:42.356Z,10.64
2023-05-11T00:10:08.714Z,10.62
2023-05-11T00:12:35.086Z,10.64
2023-05-11T00:15:01.450Z,10.65
2023-05-11T00:17:27.851Z,10.64
2023-05-11T00:19:54.213Z,10.64
2023-05-11T00:22:20.575Z,10.64
2023-05-11T00:24:46.949Z,10.64
2023-05-11T00:27:13.537Z,10.62
2023-05-11T00:29:39.906Z,10.62
2023-05-11T00:32:06.474Z,10.65
2023-05-11T00:34:32.794Z,10.65
2023-05-11T00:36:59.379Z,10.64
2023-05-11T00:39:25.704Z,10.62
2023-05-11T00:41:52.063Z,10.62
2023-05-11T00:44:18.432Z,10.62
2023-05-11T00:46:44.854Z,10.64
2023-05-11T00:49:11.458Z,10.64
2023-05-11T00:51:37.807Z,10.59
2023-05-11T00:54:04.141Z,10.61
2023-05-11T00:56:30.464Z,10.61
2023-05-11T00:58:56.807Z,10.61
2023-05-11T01:01:23.228Z,10.64
2023-05-11T01:03:49.614Z,10.59
2023-05-11T01:06:15.956Z,10.61
2023-05-11T01:08:42.310Z,10.61
2023-05-11T01:11:08.944Z,10.61
2023-05-11T01:13:35.394Z,10.62
2023-05-11T01:16:02.312Z,10.59
2023-05-11T01:18:28.699Z,10.59
2023-05-11T01:20:55.108Z,10.61
2023-05-11T01:23:21.460Z,10.59
2023-05-11T01:25:47.831Z,10.61
2023-05-11T01:28:14.168Z,10.61
2023-05-11T01:30:40.524Z,10.59
2023-05-11T01:33:06.950Z,10.58
2023-05-11T01:35:33.347Z,10.61
2023-05-11T01:37:59.743Z,10.59
2023-05-11T01:40:26.160Z,10.59
2023-05-11T01:42:52.518Z,10.59
2023-05-11T01:45:18.872Z,10.59
2023-05-11T01:47:45.286Z,10.61
2023-05-11T01:50:11.694Z,10.58
2023-05-11T01:52:38.039Z,10.58
2023-05-11T01:55:04.384Z,10.58
2023-05-11T01:57:30.711Z,10.61
2023-05-11T01:59:57.065Z,10.59
2023-05-11T02:02:23.590Z,10.58
2023-05-11T02:04:50.203Z,10.61
2023-05-11T02:07:16.576Z,10.58
2023-05-11T02:09:42.965Z,10.58
2023-05-11T02:12:09.306Z,10.59
2023-05-11T02:14:35.847Z,10.59
2023-05-11T02:17:02.219Z,10.58
2023-05-11T02:19:28.812Z,10.58
2023-05-11T02:21:55.156Z,10.58
2023-05-11T02:24:21.488Z,10.57
2023-05-11T02:26:47.819Z,10.58
2023-05-11T02:29:14.160Z,10.57
2023-05-11T02:31:40.505Z,10.57
2023-05-11T02:34:06.861Z,10.58
2023-05-11T02:36:33.234Z,10.55
2023-05-11T02:39:00.067Z,10.57
2023-05-11T02:41:26.456Z,10.59
2023-05-11T02:43:52.795Z,10.58
2023-05-11T02:46:19.188Z,10.58
2023-05-11T02:48:45.597Z,10.55
2023-05-11T02:51:11.983Z,10.55
2023-05-11T02:53:38.348Z,10.57
2023-05-11T02:56:04.680Z,10.55
2023-05-11T02:58:31.035Z,10.57
2023-05-11T03:00:57.510Z,10.57
2023-05-11T03:03:24.256Z,10.55
2023-05-11T03:05:50.638Z,10.57
2023-05-11T03:08:16.987Z,10.55
2023-05-11T03:10:43.457Z,10.57
2023-05-11T03:13:09.830Z,10.57
2023-05-11T03:15:36.190Z,10.55
2023-05-11T03:18:02.582Z,10.57
2023-05-11T03:20:28.969Z,10.55
2023-05-11T03:22:55.321Z,10.54
2023-05-11T03:25:21.668Z,10.54
2023-05-11T03:27:48.024Z,10.52
2023-05-11T03:30:14.385Z,10.55
2023-05-11T03:32:40.753Z,10.55
2023-05-11T03:35:07.104Z,10.55
2023-05-11T03:37:33.475Z,10.57
2023-05-11T03:39:59.817Z,10.54
2023-05-11T03:42:26.158Z,10.54
2023-05-11T03:44:52.505Z,10.55
2023-05-11T03:47:18.878Z,10.55
2023-05-11T03:49:45.288Z,10.55
2023-05-11T03:52:11.651Z,10.55
2023-05-11T03:54:38.025Z,10.55
2023-05-11T03:57:04.375Z,10.57
2023-05-11T03:59:30.737Z,10.55
2023-05-11T04:01:57.089Z,10.54
2023-05-11T04:04:23.464Z,10.54
2023-05-11T04:06:49.855Z,10.52
2023-05-11T04:09:16.219Z,10.54
2023-05-11T04:11:42.559Z,10.52
2023-05-11T04:14:08.927Z,10.54
2023-05-11T04:16:35.960Z,10.55
2023-05-11T04:19:02.753Z,10.57
2023-05-11T04:21:29.243Z,10.52
2023-05-11T04:23:55.826Z,10.55
2023-05-11T04:26:22.810Z,10.54
2023-05-11T04:28:49.146Z,10.57
2023-05-11T04:31:15.558Z,10.54
2023-05-11T04:33:42.057Z,10.52
2023-05-11T04:36:08.641Z,10.55
2023-05-11T04:38:34.998Z,10.54
2023-05-11T04:41:01.378Z,10.54
2023-05-11T04:43:27.940Z,10.55
2023-05-11T04:45:54.291Z,10.52
2023-05-11T04:48:21.161Z,10.54
2023-05-11T04:50:47.529Z,10.54
2023-05-11T04:53:13.898Z,10.52
2023-05-11T04:55:40.258Z,10.52
2023-05-11T04:58:06.860Z,10.54
2023-05-11T05:00:33.230Z,10.54
2023-05-11T05:03:00.628Z,10.55
2023-05-11T05:05:26.992Z,10.51
2023-05-11T05:07:53.565Z,10.54
2023-05-11T05:10:20.077Z,10.52
2023-05-11T05:12:46.888Z,10.54
2023-05-11T05:15:13.260Z,10.52
2023-05-11T05:17:39.803Z,10.52
2023-05-11T05:20:06.442Z,10.55
2023-05-11T05:22:32.795Z,10.55
2023-05-11T05:24:59.151Z,10.52
2023-05-11T05:27:25.533Z,10.52
2023-05-11T05:29:52.171Z,10.54
2023-05-11T05:32:18.522Z,10.51
2023-05-11T05:34:44.860Z,10.55
2023-05-11T05:37:11.222Z,10.54
2023-05-11T05:39:37.584Z,10.52
2023-05-11T05:42:03.957Z,10.52
2023-05-11T05:44:30.319Z,10.51
2023-05-11T05:46:57.809Z,10.52
2023-05-11T05:49:24.158Z,10.54
2023-05-11T05:51:50.516Z,10.52
2023-05-11T05:54:18.359Z,10.52
2023-05-11T05:56:44.731Z,10.54
2023-05-11T05:59:11.099Z,10.52
2023-05-11T06:01:37.476Z,10.51
2023-05-11T06:04:05.221Z,10.52
2023-05-11T06:06:31.713Z,10.51
2023-05-11T06:08:58.050Z,10.51
2023-05-11T06:11:24.396Z,10.52
2023-05-11T06:13:50.730Z,10.54
2023-05-11T06:16:17.130Z,10.51
2023-05-11T06:18:43.547Z,10.52
2023-05-11T06:21:10.162Z,10.51
2023-05-11T06:23:36.504Z,10.52
2023-05-11T06:26:03.365Z,10.51
2023-05-11T06:28:30.567Z,10.51
2023-05-11T06:30:56.915Z,10.52
2023-05-11T06:33:23.597Z,10.52
2023-05-11T06:35:49.982Z,10.52
2023-05-11T06:38:16.337Z,10.52
2023-05-11T06:40:42.709Z,10.52
2023-05-11T06:43:09.065Z,10.52
2023-05-11T06:45:35.453Z,10.54
2023-05-11T06:48:01.902Z,10.54
2023-05-11T06:50:28.481Z,10.54
2023-05-11T06:52:55.043Z,10.51
2023-05-11T06:55:21.902Z,10.50
2023-05-11T06:57:48.401Z,10.54
2023-05-11T07:00:14.757Z,10.54
2023-05-11T07:05:28.647Z,10.51
2023-05-11T07:07:55.020Z,10.54
2023-05-11T07:10:21.477Z,10.52
2023-05-11T07:12:47.920Z,10.52
2023-05-11T07:15:14.272Z,10.51
2023-05-11T07:17:44.348Z,10.51
2023-05-11T07:20:10.730Z,10.51
2023-05-11T07:22:37.088Z,10.52
2023-05-11T07:25:03.611Z,10.51
2023-05-11T07:27:29.929Z,10.51
2023-05-11T07:29:56.720Z,10.54
2023-05-11T07:32:23.665Z,10.52
2023-05-11T07:34:50.125Z,10.51
2023-05-11T07:37:17.429Z,10.51
2023-05-11T07:39:44.553Z,10.52
2023-05-11T07:42:11.537Z,10.52
2023-05-11T07:44:38.509Z,10.54
2023-05-11T07:47:04.901Z,10.52
2023-05-11T07:49:43.077Z,10.54
2023-05-11T07:52:10.507Z,10.54
2023-05-11T07:54:37.112Z,10.54
2023-05-11T07:57:03.511Z,10.54
2023-05-11T07:59:30.398Z,10.52
2023-05-11T08:01:56.845Z,10.51
2023-05-11T08:04:23.576Z,10.52
2023-05-11T08:06:50.046Z,10.52
2023-05-11T08:09:16.414Z,10.54
2023-05-11T08:11:43.748Z,10.55
2023-05-11T08:14:10.094Z,10.51
2023-05-11T08:16:36.532Z,10.54
2023-05-11T08:19:02.972Z,10.54
2023-05-11T08:21:29.433Z,10.54
2023-05-11T08:23:55.761Z,10.54
2023-05-11T08:26:22.120Z,10.54
2023-05-11T08:28:48.469Z,10.52
2023-05-11T08:31:14.872Z,10.55
2023-05-11T08:33:41.564Z,10.54
2023-05-11T08:36:07.937Z,10.55
2023-05-11T08:38:34.293Z,10.54
2023-05-11T08:41:00.660Z,10.52
2023-05-11T08:43:27.016Z,10.55
2023-05-11T08:45:53.607Z,10.55
2023-05-11T08:48:20.023Z,10.52
2023-05-11T08:50:46.374Z,10.54
2023-05-11T08:53:12.735Z,10.54
2023-05-11T08:55:39.137Z,10.52
2023-05-11T08:58:08.457Z,10.54
2023-05-11T09:00:34.811Z,10.52
2023-05-11T09:03:01.439Z,10.52
2023-05-11T09:05:27.853Z,10.54
2023-05-11T09:07:54.270Z,10.54
2023-05-11T09:10:20.675Z,10.52
2023-05-11T09:12:47.057Z,10.52
2023-05-11T09:15:13.647Z,10.52
2023-05-11T09:17:40.013Z,10.54
2023-05-11T09:20:06.413Z,10.55
2023-05-11T09:22:35.455Z,10.52
2023-05-11T09:25:02.712Z,10.52
2023-05-11T09:27:29.115Z,10.54
2023-05-11T09:29:55.492Z,10.55
2023-05-11T09:32:22.160Z,10.54
2023-05-11T09:34:48.507Z,10.55
2023-05-11T09:37:14.868Z,10.51
2023-05-11T09:39:52.630Z,10.55
2023-05-11T09:42:27.541Z,10.55
2023-05-11T09:44:53.885Z,10.54
2023-05-11T09:47:20.231Z,10.54
2023-05-11T09:49:46.598Z,10.52
2023-05-11T09:52:12.970Z,10.55
2023-05-11T09:54:39.335Z,10.52
2023-05-11T09:57:05.708Z,10.52
2023-05-11T09:59:32.077Z,10.55
2023-05-11T10:01:58.568Z,10.54
2023-05-11T10:04:25.124Z,10.54
2023-05-11T10:06:51.651Z,10.54
2023-05-11T10:09:18.241Z,10.52
2023-05-11T10:11:44.591Z,10.52
2023-05-11T10:14:10.943Z,10.52
2023-05-11T10:16:37.425Z,10.57
2023-05-11T10:19:03.892Z,10.55
2023-05-11T10:21:30.529Z,10.54
2023-05-11T10:23:56.898Z,10.52
2023-05-11T10:26:23.228Z,10.55
2023-05-11T10:28:49.601Z,10.57
2023-05-11T10:31:15.969Z,10.52
2023-05-11T10:33:42.379Z,10.52
2023-05-11T10:36:08.738Z,10.55
2023-05-11T10:38:35.075Z,10.54
2023-05-11T10:41:01.409Z,10.55
2023-05-11T10:43:27.744Z,10.55
2023-05-11T10:45:54.138Z,10.55
2023-05-11T10:48:20.769Z,10.55
2023-05-11T10:50:47.133Z,10.57
2023-05-11T10:53:13.484Z,10.57
2023-05-11T10:55:39.844Z,10.54
2023-05-11T10:58:06.180Z,10.55
2023-05-11T11:00:32.557Z,10.55
2023-05-11T11:02:59.046Z,10.55
2023-05-11T11:05:25.483Z,10.58
2023-05-11T11:07:51.877Z,10.59
2023-05-11T11:10:18.587Z,10.59
2023-05-11T11:12:45.104Z,10.59
2023-05-11T11:15:11.455Z,10.58
2023-05-11T11:17:37.852Z,10.59
2023-05-11T11:20:04.234Z,10.62
2023-05-11T11:22:30.595Z,10.58
2023-05-11T11:24:56.938Z,10.59
2023-05-11T11:27:25.109Z,10.62
2023-05-11T11:29:54.274Z,10.59
2023-05-11T11:32:20.867Z,10.59
2023-05-11T11:34:47.231Z,10.61
2023-05-11T11:37:13.622Z,10.61
2023-05-11T11:39:39.962Z,10.62
2023-05-11T11:42:06.360Z,10.64
2023-05-11T11:44:32.751Z,10.64
2023-05-11T11:46:59.174Z,10.65
2023-05-11T11:49:25.586Z,10.64
2023-05-11T11:51:51.930Z,10.64
2023-05-11T11:54:18.276Z,10.65
2023-05-11T11:56:44.671Z,10.62
2023-05-11T11:59:11.267Z,10.62
2023-05-11T12:01:37.722Z,10.61
2023-05-11T12:04:04.345Z,10.64
2023-05-11T12:06:30.883Z,10.64
2023-05-11T12:08:57.224Z,10.65
2023-05-11T12:11:23.566Z,10.64
2023-05-11T12:13:49.932Z,10.64
2023-05-11T12:16:16.672Z,10.62
2023-05-11T12:18:43.059Z,10.65
2023-05-11T12:21:09.446Z,10.65
2023-05-11T12:23:35.808Z,10.67
2023-05-11T12:26:02.137Z,10.64
2023-05-11T12:28:28.583Z,10.65
2023-05-11T12:30:54.971Z,10.65
2023-05-11T12:33:21.511Z,10.67
2023-05-11T12:35:47.977Z,10.65
2023-05-11T12:38:14.481Z,10.65
2023-05-11T12:40:40.884Z,10.65
2023-05-11T12:43:07.453Z,10.65
2023-05-11T12:45:33.804Z,10.65
2023-05-11T12:48:00.447Z,10.65
2023-05-11T12:50:26.863Z,10.64
2023-05-11T12:52:53.235Z,10.65
2023-05-11T12:55:19.966Z,10.67
2023-05-11T12:57:46.384Z,10.67
2023-05-11T13:00:12.916Z,10.68
2023-05-11T13:02:39.570Z,10.67
2023-05-11T13:05:05.974Z,10.67
2023-05-11T13:07:32.328Z,10.68
2023-05-11T13:09:58.715Z,10.67
2023-05-11T13:12:25.084Z,10.68
2023-05-11T13:14:51.444Z,10.69
2023-05-11T13:17:17.811Z,10.69
2023-05-11T13:19:44.185Z,10.72
2023-05-11T13:22:10.556Z,10.73
2023-05-11T13:24:36.920Z,10.76
2023-05-11T13:27:03.496Z,10.79
2023-05-11T13:29:29.883Z,10.76
2023-05-11T13:31:56.311Z,10.78
2023-05-11T13:34:22.730Z,10.79
2023-05-11T13:36:49.070Z,10.83
2023-05-11T13:39:15.408Z,10.83
2023-05-11T13:41:41.746Z,10.83
2023-05-11T13:44:08.389Z,10.86
2023-05-11T13:46:34.870Z,10.89
2023-05-11T13:49:01.253Z,10.86
2023-05-11T13:51:27.624Z,10.88
2023-05-11T13:53:53.997Z,10.86
2023-05-11T13:56:20.373Z,10.86
2023-05-11T13:58:46.718Z,10.88
2023-05-11T14:01:13.317Z,10.91
2023-05-11T14:03:39.760Z,10.91
2023-05-11T14:06:06.162Z,10.89
2023-05-11T14:08:32.490Z,10.89
2023-05-11T14:10:58.833Z,10.93
2023-05-11T14:13:25.203Z,10.98
2023-05-11T14:15:51.572Z,10.96
2023-05-11T14:18:18.287Z,10.98
2023-05-11T14:20:44.706Z,10.96
2023-05-11T14:23:11.068Z,10.93
2023-05-11T14:25:37.418Z,10.95
2023-05-11T14:28:03.772Z,10.95
2023-05-11T14:30:30.123Z,10.92
2023-05-11T14:32:56.520Z,10.93
2023-05-11T14:35:23.136Z,10.92
2023-05-11T14:37:49.509Z,10.92
2023-05-11T14:40:15.885Z,10.95
2023-05-11T14:42:42.263Z,10.95
2023-05-11T14:45:08.643Z,10.88
2023-05-11T14:47:35.128Z,10.91
2023-05-11T14:50:01.526Z,10.88
2023-05-11T14:52:28.120Z,10.92
2023-05-11T14:54:54.470Z,10.92
2023-05-11T14:57:20.870Z,10.89
2023-05-11T14:59:58.243Z,10.89
2023-05-11T15:02:26.221Z,10.85
2023-05-11T15:04:52.753Z,10.89
2023-05-11T15:07:19.137Z,10.89
2023-05-11T15:09:45.769Z,10.88
2023-05-11T15:12:12.099Z,10.89
2023-05-11T15:14:38.742Z,10.85
2023-05-11T15:17:05.179Z,10.88
2023-05-11T15:19:31.545Z,10.89
2023-05-11T15:21:57.920Z,10.86
2023-05-11T15:24:24.283Z,10.88
2023-05-11T15:26:50.651Z,10.85
2023-05-11T15:29:16.992Z,10.85
2023-05-11T15:31:43.383Z,10.86
2023-05-11T15:34:09.716Z,10.86
2023-05-11T15:36:36.063Z,10.88
2023-05-11T15:39:02.424Z,10.85
2023-05-11T15:41:29.198Z,10.85
2023-05-11T15:43:55.582Z,10.88
2023-05-11T15:46:22.000Z,10.89
2023-05-11T15:48:48.432Z,10.92
2023-05-11T15:51:14.944Z,10.89
2023-05-11T15:53:41.320Z,10.89
2023-05-11T15:56:08.675Z,10.91
2023-05-11T15:58:35.019Z,10.91
2023-05-11T16:01:01.363Z,10.91
2023-05-11T16:03:28.100Z,10.89
2023-05-11T16:05:54.502Z,10.89
2023-05-11T16:08:20.876Z,10.92
2023-05-11T16:10:47.247Z,10.92
2023-05-11T16:13:13.609Z,10.91
2023-05-11T16:15:39.998Z,10.93
2023-05-11T16:18:06.413Z,10.89
2023-05-11T16:20:32.801Z,10.92
2023-05-11T16:22:59.130Z,10.93
2023-05-11T16:25:25.481Z,10.92
2023-05-11T16:27:51.858Z,10.91
2023-05-11T16:30:24.861Z,10.92
2023-05-11T16:32:52.417Z,10.92
2023-05-11T16:35:18.926Z,10.92
2023-05-11T16:37:45.279Z,10.93
2023-05-11T16:40:11.632Z,10.92
2023-05-11T16:42:38.012Z,10.93
2023-05-11T16:45:04.398Z,10.92
2023-05-11T16:47:30.779Z,10.95
2023-05-11T16:49:57.510Z,10.92
2023-05-11T16:52:23.913Z,10.92
2023-05-11T16:54:50.267Z,10.91
2023-05-11T16:57:18.887Z,10.92
2023-05-11T16:59:45.242Z,10.91
2023-05-11T17:02:11.712Z,10.86
2023-05-11T17:04:38.199Z,10.89
2023-05-11T17:07:04.780Z,10.89
2023-05-11T17:09:31.143Z,10.91
2023-05-11T17:11:57.728Z,10.89
2023-05-11T17:14:24.091Z,10.89
2023-05-11T17:16:50.500Z,10.88
2023-05-11T17:19:16.982Z,10.89
2023-05-11T17:21:43.406Z,10.88
2023-05-11T17:24:09.799Z,10.88
2023-05-11T17:26:47.259Z,10.88
2023-05-11T17:29:14.717Z,10.86
2023-05-11T17:31:41.258Z,10.86
2023-05-11T17:34:07.893Z,10.86
2023-05-11T17:36:34.385Z,10.85
2023-05-11T17:39:00.747Z,10.83
2023-05-11T17:41:27.125Z,10.82
2023-05-11T17:43:53.469Z,10.85
2023-05-11T17:46:20.069Z,10.82
2023-05-11T17:48:46.442Z,10.86
2023-05-11T17:51:12.824Z,10.85
2023-05-11T17:53:39.188Z,10.82
2023-05-11T17:56:05.515Z,10.83
2023-05-11T17:58:31.890Z,10.82
2023-05-11T18:00:58.297Z,10.80
2023-05-11T18:03:24.958Z,10.79
2023-05-11T18:05:51.376Z,10.80
2023-05-11T18:08:17.726Z,10.79
2023-05-11T18:10:44.066Z,10.80
2023-05-11T18:13:10.425Z,10.78
2023-05-11T18:15:36.783Z,10.82
2023-05-11T18:18:03.222Z,10.80
2023-05-11T18:20:29.869Z,10.79
2023-05-11T18:22:56.227Z,10.79
2023-05-11T18:25:22.572Z,10.80
2023-05-11T18:27:48.956Z,10.79
2023-05-11T18:30:15.304Z,10.78
2023-05-11T18:32:41.664Z,10.79
2023-05-11T18:35:08.042Z,10.79
2023-05-11T18:37:36.319Z,10.76
2023-05-11T18:40:02.943Z,10.78
2023-05-11T18:42:29.296Z,10.76
2023-05-11T18:44:55.654Z,10.76
2023-05-11T18:47:22.042Z,10.76
2023-05-11T18:49:49.252Z,10.76
2023-05-11T18:52:15.667Z,10.76
2023-05-11T18:54:42.095Z,10.78
2023-05-11T18:57:08.468Z,10.76
2023-05-11T18:59:34.834Z,10.78
2023-05-11T19:02:01.367Z,10.76
2023-05-11T19:04:27.798Z,10.75
2023-05-11T19:06:54.381Z,10.78
2023-05-11T19:09:20.752Z,10.78
2023-05-11T19:11:47.094Z,10.75
2023-05-11T19:14:13.447Z,10.76
2023-05-11T19:16:39.835Z,10.75
2023-05-11T19:19:06.304Z,10.72
2023-05-11T19:21:32.695Z,10.73
2023-05-11T19:23:59.042Z,10.73
2023-05-11T19:26:25.439Z,10.75
2023-05-11T19:28:51.796Z,10.76
2023-05-11T19:31:18.161Z,10.72
2023-05-11T19:33:44.758Z,10.72
2023-05-11T19:36:11.105Z,10.71
2023-05-11T19:38:37.655Z,10.72
2023-05-11T19:41:04.029Z,10.72
2023-05-11T19:43:30.386Z,10.71
2023-05-11T19:45:56.774Z,10.75
2023-05-11T19:48:23.151Z,10.71
2023-05-11T19:50:49.513Z,10.72
2023-05-11T19:53:15.851Z,10.72
2023-05-11T19:55:42.206Z,10.72
2023-05-11T19:58:08.542Z,10.73
2023-05-11T20:00:35.124Z,10.72
2023-05-11T20:03:01.596Z,10.72
2023-05-11T20:05:28.052Z,10.69
2023-05-11T20:07:54.403Z,10.71
2023-05-11T20:10:21.025Z,10.71
2023-05-11T20:12:47.541Z,10.68
2023-05-11T20:15:13.874Z,10.69
2023-05-11T20:17:40.240Z,10.68
2023-05-11T20:20:06.620Z,10.69
2023-05-11T20:22:33.214Z,10.69
2023-05-11T20:24:59.577Z,10.67
2023-05-11T20:27:25.931Z,10.71
2023-05-11T20:29:52.309Z,10.69
2023-05-11T20:32:18.675Z,10.69
2023-05-11T20:34:45.017Z,10.68
2023-05-11T20:37:11.384Z,10.69
2023-05-11T20:39:37.969Z,10.69
2023-05-11T20:42:04.306Z,10.67
2023-05-11T20:44:30.672Z,10.67
2023-05-11T20:46:57.093Z,10.68
2023-05-11T20:49:34.614Z,10.67
2023-05-11T20:52:05.030Z,10.68
2023-05-11T20:54:31.389Z,10.68
2023-05-11T20:56:57.778Z,10.67
2023-05-11T21:01:53.447Z,10.64
2023-05-11T21:04:19.845Z,10.67
2023-05-11T21:06:46.206Z,10.65
2023-05-11T21:09:12.585Z,10.68
2023-05-11T21:11:38.921Z,10.65
2023-05-11T21:14:05.496Z,10.65
2023-05-11T21:16:31.855Z,10.64
2023-05-11T21:18:58.302Z,10.65
2023-05-11T21:21:24.706Z,10.64
2023-05-11T21:23:51.076Z,10.64
2023-05-11T21:26:17.455Z,10.65
2023-05-11T21:28:43.803Z,10.65
2023-05-11T21:31:10.315Z,10.64
2023-05-11T21:33:36.715Z,10.65
2023-05-11T21:36:05.718Z,10.64
2023-05-11T21:38:32.297Z,10.64
2023-05-11T21:40:58.880Z,10.64
2023-05-11T21:43:25.220Z,10.65
2023-05-11T21:45:51.552Z,10.64
2023-05-11T21:48:17.904Z,10.65
2023-05-11T21:50:44.264Z,10.64
2023-05-11T21:53:10.611Z,10.62
2023-05-11T21:55:36.979Z,10.62
2023-05-11T21:58:03.567Z,10.61
2023-05-11T22:00:29.982Z,10.61
2023-05-11T22:02:56.422Z,10.61
2023-05-11T22:05:22.863Z,10.62
2023-05-11T22:07:49.221Z,10.64
2023-05-11T22:10:16.971Z,10.61
2023-05-11T22:12:43.407Z,10.62
2023-05-11T22:15:09.990Z,10.62
2023-05-11T22:17:36.347Z,10.62
2023-05-11T22:20:02.698Z,10.62
2023-05-11T22:22:29.075Z,10.62
2023-05-11T22:24:55.411Z,10.62
2023-05-11T22:27:21.767Z,10.61
2023-05-11T22:29:48.133Z,10.59
2023-05-11T22:32:14.710Z,10.61
2023-05-11T22:34:41.060Z,10.64
2023-05-11T22:37:07.431Z,10.64
2023-05-11T22:39:33.787Z,10.61
2023-05-11T22:42:00.120Z,10.61
2023-05-11T22:44:26.461Z,10.61
2023-05-11T22:46:52.834Z,10.59
2023-05-11T22:49:19.419Z,10.59
2023-05-11T22:51:45.744Z,10.62
2023-05-11T22:54:12.083Z,10.59
2023-05-11T22:56:38.445Z,10.58
2023-05-11T22:59:04.803Z,10.59
2023-05-11T23:01:31.208Z,10.61
2023-05-11T23:03:57.583Z,10.61
2023-05-11T23:06:24.170Z,10.58
2023-05-11T23:08:50.508Z,10.59
2023-05-11T23:11:16.872Z,10.59
2023-05-11T23:13:43.270Z,10.59
2023-05-11T23:16:09.596Z,10.59
2023-05-11T23:18:36.195Z,10.59
2023-05-11T23:21:02.680Z,10.58
2023-05-11T23:23:29.041Z,10.58
2023-05-11T23:25:55.431Z,10.58
2023-05-11T23:28:21.796Z,10.59
2023-05-11T23:30:48.158Z,10.58
2023-05-11T23:33:14.537Z,10.58
2023-05-11T23:35:40.896Z,10.57
2023-05-11T23:38:07.523Z,10.57
2023-05-11T23:40:33.897Z,10.55
2023-05-11T23:43:00.264Z,10.54
2023-05-11T23:45:26.629Z,10.58
2023-05-11T23:47:53.006Z,10.55
2023-05-11T23:50:19.573Z,10.55
2023-05-11T23:52:46.100Z,10.57
2023-05-11T23:55:12.671Z,10.55
2023-05-11T23:57:39.045Z,10.55
